createdAt,value
2022-11-10T00:00:30.965Z,15.07
2022-11-10T00:03:07.697Z,15.07
2022-11-10T00:05:39.246Z,15.10
2022-11-10T00:08:08.504Z,15.02
2022-11-10T00:11:01.446Z,15.05
2022-11-10T00:13:59.180Z,14.99
2022-11-10T00:16:46.812Z,15.03
2022-11-10T00:19:13.825Z,14.82
2022-11-10T00:21:40.741Z,14.66
2022-11-10T00:24:10.152Z,14.77
2022-11-10T00:26:41.611Z,14.80
2022-11-10T00:29:13.399Z,14.77
2022-11-10T00:31:41.225Z,14.70
2022-11-10T00:34:14.005Z,14.84
2022-11-10T00:36:41.561Z,15.01
2022-11-10T00:39:11.765Z,15.01
2022-11-10T00:41:38.724Z,14.80
2022-11-10T00:44:07.681Z,14.73
2022-11-10T00:46:34.718Z,14.83
2022-11-10T00:49:04.081Z,14.66
2022-11-10T00:51:33.567Z,14.70
2022-11-10T00:54:00.467Z,14.76
2022-11-10T00:56:27.478Z,14.76
2022-11-10T00:58:54.388Z,14.41
2022-11-10T01:01:26.598Z,14.47
2022-11-10T01:03:54.206Z,14.29
2022-11-10T01:06:22.334Z,14.34
2022-11-10T01:08:54.359Z,14.41
2022-11-10T01:11:27.596Z,14.56
2022-11-10T01:13:59.084Z,14.43
2022-11-10T01:16:31.941Z,14.32
2022-11-10T01:19:01.787Z,14.36
2022-11-10T01:21:30.618Z,14.44
2022-11-10T01:23:57.824Z,14.00
2022-11-10T01:26:26.440Z,14.05
2022-11-10T01:28:53.405Z,14.09
2022-11-10T01:31:24.569Z,14.02
2022-11-10T01:33:56.058Z,14.09
2022-11-10T01:36:22.949Z,13.98
2022-11-10T01:38:49.887Z,14.07
2022-11-10T01:41:19.217Z,13.81
2022-11-10T01:43:48.678Z,13.73
2022-11-10T01:46:15.716Z,13.82
2022-11-10T01:48:51.306Z,13.83
2022-11-10T01:51:49.093Z,13.81
2022-11-10T01:54:28.477Z,13.67
2022-11-10T01:57:01.504Z,13.70
2022-11-10T01:59:37.966Z,13.87
2022-11-10T02:02:35.091Z,13.82
2022-11-10T02:05:06.984Z,13.76
2022-11-10T02:07:36.716Z,13.82
2022-11-10T02:10:14.476Z,13.68
2022-11-10T02:12:41.531Z,13.53
2022-11-10T02:15:13.689Z,13.52
2022-11-10T02:17:41.365Z,13.68
2022-11-10T02:20:13.616Z,13.53
2022-11-10T02:22:41.085Z,13.48
2022-11-10T02:25:09.039Z,13.63
2022-11-10T02:27:35.940Z,13.53
2022-11-10T02:30:05.516Z,13.38
2022-11-10T02:32:37.918Z,13.52
2022-11-10T02:35:05.747Z,13.55
2022-11-10T02:37:32.902Z,13.34
2022-11-10T02:39:59.967Z,13.22
2022-11-10T02:42:26.953Z,13.23
2022-11-10T02:44:57.025Z,13.32
2022-11-10T02:47:26.153Z,13.30
2022-11-10T02:49:53.057Z,13.47
2022-11-10T02:52:19.964Z,13.38
2022-11-10T02:54:46.853Z,13.13
2022-11-10T02:57:15.912Z,13.10
2022-11-10T02:59:45.798Z,13.21
2022-11-10T03:02:12.784Z,13.26
2022-11-10T03:04:39.666Z,13.45
2022-11-10T03:07:06.806Z,13.30
2022-11-10T03:09:36.158Z,13.15
2022-11-10T03:12:03.127Z,13.19
2022-11-10T03:14:34.680Z,13.32
2022-11-10T03:17:03.835Z,13.55
2022-11-10T03:19:30.675Z,13.37
2022-11-10T03:21:59.707Z,13.31
2022-11-10T03:24:26.667Z,13.14
2022-11-10T03:26:56.029Z,13.39
2022-11-10T03:29:25.447Z,13.17
2022-11-10T03:31:54.513Z,13.25
2022-11-10T03:34:31.542Z,13.45
2022-11-10T03:36:58.876Z,13.21
2022-11-10T03:39:25.804Z,13.25
2022-11-10T03:41:52.721Z,13.29
2022-11-10T03:44:21.962Z,13.42
2022-11-10T03:46:53.680Z,13.20
2022-11-10T03:49:23.146Z,12.96
2022-11-10T03:51:52.302Z,13.09
2022-11-10T03:54:19.213Z,13.14
2022-11-10T03:56:46.198Z,13.29
2022-11-10T03:59:15.204Z,13.46
2022-11-10T04:01:44.388Z,13.45
2022-11-10T04:04:31.680Z,13.18
2022-11-10T04:07:16.957Z,13.07
2022-11-10T04:09:46.122Z,13.35
2022-11-10T04:12:31.364Z,13.29
2022-11-10T04:15:16.546Z,13.34
2022-11-10T04:17:50.573Z,13.17
2022-11-10T04:20:19.974Z,13.24
2022-11-10T04:23:07.767Z,13.40
2022-11-10T04:25:56.932Z,13.55
2022-11-10T04:28:23.821Z,13.52
2022-11-10T04:30:50.774Z,13.40
2022-11-10T04:33:20.025Z,13.23
2022-11-10T04:35:47.124Z,13.35
2022-11-10T04:38:14.057Z,13.47
2022-11-10T04:40:40.934Z,13.40
2022-11-10T04:43:07.870Z,13.23
2022-11-10T04:45:37.289Z,13.24
2022-11-10T04:48:04.344Z,13.14
2022-11-10T04:50:32.305Z,13.07
2022-11-10T04:53:01.555Z,13.50
2022-11-10T04:55:28.438Z,13.50
2022-11-10T04:57:55.692Z,13.38
2022-11-10T05:00:23.422Z,13.55
2022-11-10T05:02:50.421Z,13.28
2022-11-10T05:05:17.340Z,13.17
2022-11-10T05:07:47.884Z,13.53
2022-11-10T05:10:17.994Z,13.54
2022-11-10T05:12:47.372Z,13.46
2022-11-10T05:15:14.448Z,13.16
2022-11-10T05:17:41.470Z,12.94
2022-11-10T05:20:09.379Z,13.06
2022-11-10T05:22:36.324Z,13.11
2022-11-10T05:25:03.276Z,13.21
2022-11-10T05:27:30.211Z,13.23
2022-11-10T05:29:57.143Z,13.20
2022-11-10T05:32:24.082Z,13.06
2022-11-10T05:34:50.933Z,12.96
2022-11-10T05:37:17.788Z,12.95
2022-11-10T05:39:49.633Z,13.02
2022-11-10T05:42:19.582Z,12.94
2022-11-10T05:44:48.781Z,12.97
2022-11-10T05:47:15.705Z,12.78
2022-11-10T05:49:45.212Z,12.73
2022-11-10T05:52:12.146Z,12.81
2022-11-10T05:54:43.819Z,12.85
2022-11-10T05:57:10.808Z,12.53
2022-11-10T05:59:40.229Z,12.67
2022-11-10T06:02:07.188Z,12.77
2022-11-10T06:04:34.077Z,12.69
2022-11-10T06:07:07.985Z,12.93
2022-11-10T06:09:35.510Z,12.55
2022-11-10T06:12:03.543Z,12.48
2022-11-10T06:14:30.628Z,12.46
2022-11-10T06:16:57.494Z,12.56
2022-11-10T06:19:26.694Z,12.32
2022-11-10T06:21:58.971Z,12.54
2022-11-10T06:24:30.755Z,12.25
2022-11-10T06:26:59.953Z,12.59
2022-11-10T06:29:27.210Z,12.34
2022-11-10T06:31:57.183Z,12.23
2022-11-10T06:34:24.235Z,12.44
2022-11-10T06:36:51.194Z,12.46
2022-11-10T06:39:20.157Z,12.81
2022-11-10T06:41:47.395Z,12.51
2022-11-10T06:44:16.811Z,12.42
2022-11-10T06:46:46.346Z,12.68
2022-11-10T06:49:15.755Z,12.58
2022-11-10T06:51:42.722Z,12.66
2022-11-10T06:54:09.870Z,12.57
2022-11-10T06:56:36.853Z,12.63
2022-11-10T06:59:07.035Z,12.73
2022-11-10T07:01:34.130Z,12.90
2022-11-10T07:04:19.585Z,12.83
2022-11-10T07:06:48.029Z,13.19
2022-11-10T07:09:17.678Z,13.26
2022-11-10T07:11:47.601Z,13.76
2022-11-10T07:14:14.547Z,14.07
2022-11-10T07:16:44.028Z,14.28
2022-11-10T07:19:10.969Z,13.92
2022-11-10T07:21:43.536Z,14.19
2022-11-10T07:24:10.691Z,14.74
2022-11-10T07:26:37.704Z,14.61
2022-11-10T07:29:06.779Z,14.37
2022-11-10T07:31:36.034Z,14.33
2022-11-10T07:34:05.897Z,14.47
2022-11-10T07:36:35.394Z,14.18
2022-11-10T07:39:02.325Z,13.70
2022-11-10T07:41:29.470Z,13.58
2022-11-10T07:43:56.438Z,13.19
2022-11-10T07:46:23.448Z,13.18
2022-11-10T07:48:54.939Z,13.07
2022-11-10T07:51:24.412Z,13.21
2022-11-10T07:53:55.893Z,13.14
2022-11-10T07:56:23.113Z,13.40
2022-11-10T07:58:54.637Z,13.41
2022-11-10T08:01:21.846Z,13.13
2022-11-10T08:03:53.653Z,12.93
2022-11-10T08:06:20.678Z,13.19
2022-11-10T08:08:47.905Z,13.05
2022-11-10T08:11:14.811Z,13.22
2022-11-10T08:13:47.342Z,13.46
2022-11-10T08:16:14.350Z,13.10
2022-11-10T08:18:41.360Z,13.04
2022-11-10T08:21:08.400Z,13.10
2022-11-10T08:23:35.383Z,12.95
2022-11-10T08:26:02.270Z,12.93
2022-11-10T08:28:31.438Z,12.81
2022-11-10T08:31:02.845Z,13.25
2022-11-10T08:33:39.251Z,13.77
2022-11-10T08:36:06.547Z,13.74
2022-11-10T08:38:35.739Z,13.47
2022-11-10T08:41:02.787Z,13.48
2022-11-10T08:43:32.212Z,13.44
2022-11-10T08:46:01.977Z,13.17
2022-11-10T08:48:29.018Z,13.24
2022-11-10T08:50:59.848Z,13.01
2022-11-10T08:53:27.077Z,13.34
2022-11-10T08:55:54.171Z,13.61
2022-11-10T08:58:24.947Z,13.54
2022-11-10T09:00:54.399Z,13.90
2022-11-10T09:03:24.803Z,13.81
2022-11-10T09:05:58.381Z,13.86
2022-11-10T09:08:26.516Z,13.68
2022-11-10T09:10:56.279Z,13.89
2022-11-10T09:13:29.958Z,13.99
2022-11-10T09:16:02.728Z,13.71
2022-11-10T09:18:34.414Z,13.62
2022-11-10T09:21:06.705Z,13.85
2022-11-10T09:23:38.167Z,13.64
2022-11-10T09:26:07.656Z,13.50
2022-11-10T09:28:34.561Z,13.75
2022-11-10T09:31:04.548Z,13.53
2022-11-10T09:33:34.067Z,13.65
2022-11-10T09:36:02.190Z,13.99
2022-11-10T09:38:29.158Z,14.14
2022-11-10T09:41:18.305Z,14.08
2022-11-10T09:44:17.670Z,14.12
2022-11-10T09:47:12.465Z,13.97
2022-11-10T09:49:57.918Z,14.14
2022-11-10T09:52:27.711Z,13.62
2022-11-10T09:55:19.687Z,13.97
2022-11-10T09:57:50.818Z,14.05
2022-11-10T10:00:18.686Z,14.12
2022-11-10T10:03:01.605Z,14.39
2022-11-10T10:05:46.579Z,14.22
2022-11-10T10:08:31.887Z,14.25
2022-11-10T10:11:53.224Z,14.43
2022-11-10T10:14:45.553Z,15.06
2022-11-10T10:17:26.177Z,15.55
2022-11-10T10:20:20.416Z,16.46
2022-11-10T10:23:02.240Z,16.91
2022-11-10T10:25:30.452Z,16.41
2022-11-10T10:28:07.086Z,16.40
2022-11-10T10:30:36.205Z,16.16
2022-11-10T10:33:19.358Z,15.94
2022-11-10T10:35:49.791Z,16.30
2022-11-10T10:38:38.112Z,16.18
2022-11-10T10:41:28.997Z,16.04
2022-11-10T10:44:00.472Z,15.95
2022-11-10T10:46:35.716Z,15.94
2022-11-10T10:49:30.027Z,15.47
2022-11-10T10:52:14.168Z,15.60
2022-11-10T10:54:41.403Z,15.64
2022-11-10T10:57:30.071Z,15.44
2022-11-10T11:00:23.919Z,15.65
2022-11-10T11:03:23.290Z,16.67
2022-11-10T11:06:19.157Z,15.68
2022-11-10T11:09:06.142Z,16.61
2022-11-10T11:11:39.370Z,16.45
2022-11-10T11:14:27.850Z,17.14
2022-11-10T11:17:22.383Z,18.00
2022-11-10T11:19:59.907Z,17.24
2022-11-10T11:22:57.040Z,17.04
2022-11-10T11:25:34.409Z,16.46
2022-11-10T11:28:26.383Z,16.91
2022-11-10T11:31:38.765Z,17.14
2022-11-10T11:34:32.892Z,17.65
2022-11-10T11:37:18.033Z,17.47
2022-11-10T11:40:23.156Z,18.22
2022-11-10T11:43:18.382Z,17.54
2022-11-10T11:46:14.507Z,17.49
2022-11-10T11:48:53.127Z,17.44
2022-11-10T11:51:30.713Z,17.45
2022-11-10T11:54:22.261Z,17.77
2022-11-10T11:56:51.953Z,17.02
2022-11-10T11:59:50.756Z,17.72
2022-11-10T12:02:56.702Z,17.54
2022-11-10T12:06:05.348Z,17.62
2022-11-10T12:09:16.886Z,16.79
2022-11-10T12:12:04.872Z,16.90
2022-11-10T12:15:17.685Z,16.84
2022-11-10T12:18:05.650Z,17.88
2022-11-10T12:20:55.439Z,17.64
2022-11-10T12:23:59.990Z,17.48
2022-11-10T12:26:50.291Z,16.92
2022-11-10T12:29:25.732Z,16.75
2022-11-10T12:32:24.209Z,16.95
2022-11-10T12:35:47.152Z,16.54
2022-11-10T12:38:20.763Z,16.79
2022-11-10T12:40:52.964Z,16.96
2022-11-10T12:43:35.294Z,16.66
2022-11-10T12:46:11.919Z,17.01
2022-11-10T12:49:20.294Z,17.11
2022-11-10T12:52:46.768Z,17.59
2022-11-10T12:55:18.666Z,17.87
2022-11-10T12:57:46.024Z,17.81
2022-11-10T13:00:32.479Z,17.96
2022-11-10T13:03:00.107Z,18.08
2022-11-10T13:05:42.129Z,19.79
2022-11-10T13:08:27.511Z,20.19
2022-11-10T13:10:59.654Z,19.56
2022-11-10T13:13:29.699Z,18.11
2022-11-10T13:16:00.634Z,18.46
2022-11-10T13:18:30.595Z,18.49
2022-11-10T13:20:59.515Z,18.01
2022-11-10T13:23:44.609Z,17.95
2022-11-10T13:26:44.718Z,17.64
2022-11-10T13:29:47.107Z,17.00
2022-11-10T13:32:14.009Z,17.42
2022-11-10T13:34:46.098Z,17.64
2022-11-10T13:37:34.939Z,17.38
2022-11-10T13:40:28.088Z,17.28
2022-11-10T13:42:57.754Z,16.81
2022-11-10T13:45:49.553Z,16.68
2022-11-10T13:48:44.939Z,16.84
2022-11-10T13:51:46.029Z,16.98
2022-11-10T13:54:24.221Z,17.01
2022-11-10T13:57:07.874Z,16.93
2022-11-10T13:59:47.814Z,17.16
2022-11-10T14:02:36.512Z,17.09
2022-11-10T14:05:09.926Z,17.02
2022-11-10T14:07:46.549Z,16.68
2022-11-10T14:10:45.653Z,16.89
2022-11-10T14:13:24.305Z,16.99
2022-11-10T14:15:54.206Z,16.87
2022-11-10T14:18:23.185Z,16.71
2022-11-10T14:20:57.872Z,16.72
2022-11-10T14:23:45.849Z,16.64
2022-11-10T14:26:35.687Z,16.48
2022-11-10T14:29:35.908Z,16.62
2022-11-10T14:32:25.172Z,16.77
2022-11-10T14:34:57.856Z,16.66
2022-11-10T14:37:30.435Z,16.69
2022-11-10T14:40:04.342Z,16.97
2022-11-10T14:42:36.030Z,16.64
2022-11-10T14:45:27.086Z,16.75
2022-11-10T14:47:58.076Z,16.72
2022-11-10T14:50:25.079Z,16.79
2022-11-10T14:53:07.438Z,16.57
2022-11-10T14:55:36.633Z,16.58
2022-11-10T14:58:15.047Z,16.35
2022-11-10T15:00:46.899Z,16.47
2022-11-10T15:03:44.178Z,16.07
2022-11-10T15:06:16.967Z,16.25
2022-11-10T15:08:46.850Z,16.54
2022-11-10T15:11:54.285Z,16.05
2022-11-10T15:14:42.458Z,16.03
2022-11-10T15:17:24.837Z,15.84
2022-11-10T15:20:00.470Z,16.01
2022-11-10T15:22:30.205Z,15.96
2022-11-10T15:25:00.913Z,15.93
2022-11-10T15:27:32.428Z,15.89
2022-11-10T15:30:02.138Z,16.16
2022-11-10T15:32:42.109Z,16.35
2022-11-10T15:35:29.190Z,16.33
2022-11-10T15:38:06.200Z,16.39
2022-11-10T15:40:42.586Z,16.26
2022-11-10T15:43:13.819Z,16.44
2022-11-10T15:45:43.024Z,16.39
2022-11-10T15:48:14.141Z,16.41
2022-11-10T15:50:44.295Z,16.40
2022-11-10T15:53:18.191Z,16.48
2022-11-10T15:55:50.423Z,16.36
2022-11-10T15:58:26.934Z,16.35
2022-11-10T16:00:56.610Z,16.58
2022-11-10T16:03:24.412Z,16.27
2022-11-10T16:05:55.975Z,16.52
2022-11-10T16:08:26.681Z,16.36
2022-11-10T16:10:56.508Z,16.60
2022-11-10T16:13:32.566Z,16.58
2022-11-10T16:16:00.506Z,16.58
2022-11-10T16:18:31.697Z,16.41
2022-11-10T16:20:58.982Z,16.56
2022-11-10T16:23:28.803Z,16.71
2022-11-10T16:25:57.448Z,16.71
2022-11-10T16:28:29.426Z,16.56
2022-11-10T16:30:56.492Z,16.43
2022-11-10T16:33:25.159Z,16.63
2022-11-10T16:35:59.746Z,16.54
2022-11-10T16:38:29.992Z,16.29
2022-11-10T16:41:06.133Z,16.35
2022-11-10T16:43:33.357Z,16.05
2022-11-10T16:46:05.814Z,16.25
2022-11-10T16:48:35.681Z,15.92
2022-11-10T16:51:05.310Z,16.12
2022-11-10T16:53:32.331Z,16.20
2022-11-10T16:56:01.843Z,16.09
2022-11-10T16:58:28.775Z,16.07
2022-11-10T17:01:01.243Z,16.12
2022-11-10T17:03:36.494Z,16.16
2022-11-10T17:06:05.284Z,16.29
2022-11-10T17:08:35.645Z,16.47
2022-11-10T17:11:02.635Z,16.53
2022-11-10T17:13:29.704Z,16.50
2022-11-10T17:16:14.983Z,16.39
2022-11-10T17:18:42.138Z,16.33
2022-11-10T17:21:09.334Z,16.38
2022-11-10T17:23:36.421Z,16.16
2022-11-10T17:26:03.579Z,16.09
2022-11-10T17:28:33.067Z,16.14
2022-11-10T17:31:04.549Z,16.05
2022-11-10T17:33:31.558Z,16.20
2022-11-10T17:36:02.499Z,16.20
2022-11-10T17:38:33.348Z,16.16
2022-11-10T17:41:02.329Z,16.16
2022-11-10T17:43:31.881Z,16.15
2022-11-10T17:45:58.921Z,16.40
2022-11-10T17:48:25.935Z,16.11
2022-11-10T17:50:55.161Z,16.15
2022-11-10T17:53:26.197Z,16.22
2022-11-10T17:55:56.307Z,16.24
2022-11-10T17:58:23.540Z,16.53
2022-11-10T18:00:50.829Z,16.52
2022-11-10T18:03:21.044Z,16.36
2022-11-10T18:05:48.346Z,15.93
2022-11-10T18:08:16.833Z,15.93
2022-11-10T18:10:52.173Z,15.79
2022-11-10T18:13:21.903Z,15.85
2022-11-10T18:15:49.192Z,15.88
2022-11-10T18:18:18.043Z,15.70
2022-11-10T18:20:45.759Z,15.88
2022-11-10T18:23:15.250Z,16.04
2022-11-10T18:25:43.171Z,15.81
2022-11-10T18:28:16.121Z,15.81
2022-11-10T18:30:43.264Z,15.87
2022-11-10T18:33:12.248Z,15.90
2022-11-10T18:35:40.500Z,16.04
2022-11-10T18:38:09.636Z,15.82
2022-11-10T18:40:36.592Z,15.94
2022-11-10T18:43:07.473Z,15.91
2022-11-10T18:45:39.299Z,15.81
2022-11-10T18:48:06.846Z,16.00
2022-11-10T18:50:39.608Z,15.64
2022-11-10T18:53:08.807Z,15.67
2022-11-10T18:55:35.670Z,15.74
2022-11-10T18:58:02.748Z,15.70
2022-11-10T19:00:34.384Z,16.00
2022-11-10T19:03:01.447Z,16.04
2022-11-10T19:05:29.070Z,16.06
2022-11-10T19:07:56.037Z,16.13
2022-11-10T19:10:25.158Z,16.02
2022-11-10T19:12:54.250Z,15.79
2022-11-10T19:15:21.227Z,15.77
2022-11-10T19:17:48.054Z,16.00
2022-11-10T19:20:20.502Z,16.19
2022-11-10T19:22:47.421Z,15.81
2022-11-10T19:25:14.485Z,16.00
2022-11-10T19:27:41.447Z,16.21
2022-11-10T19:30:09.333Z,16.05
2022-11-10T19:32:36.305Z,16.07
2022-11-10T19:35:04.343Z,16.12
2022-11-10T19:37:34.875Z,15.90
2022-11-10T19:40:02.369Z,15.74
2022-11-10T19:42:29.204Z,15.91
2022-11-10T19:44:56.189Z,15.96
2022-11-10T19:47:23.107Z,16.18
2022-11-10T19:49:52.572Z,16.08
2022-11-10T19:52:22.013Z,15.89
2022-11-10T19:54:51.099Z,16.12
2022-11-10T19:57:18.093Z,16.10
2022-11-10T19:59:47.234Z,16.15
2022-11-10T20:02:16.262Z,16.00
2022-11-10T20:05:01.342Z,16.20
2022-11-10T20:07:46.780Z,15.98
2022-11-10T20:10:15.976Z,16.23
2022-11-10T20:12:43.140Z,16.10
2022-11-10T20:15:11.311Z,15.95
2022-11-10T20:17:38.329Z,15.94
2022-11-10T20:20:06.291Z,15.87
2022-11-10T20:22:33.325Z,16.12
2022-11-10T20:25:00.579Z,15.91
2022-11-10T20:27:27.572Z,15.95
2022-11-10T20:29:57.153Z,15.82
2022-11-10T20:32:25.744Z,15.72
2022-11-10T20:34:52.768Z,15.93
2022-11-10T20:37:24.993Z,15.74
2022-11-10T20:39:51.896Z,16.03
2022-11-10T20:42:18.883Z,15.88
2022-11-10T20:44:45.808Z,15.56
2022-11-10T20:47:12.818Z,15.76
2022-11-10T20:49:39.757Z,15.80
2022-11-10T20:52:06.735Z,16.05
2022-11-10T20:54:36.140Z,15.95
2022-11-10T20:57:05.498Z,15.77
2022-11-10T20:59:32.442Z,15.85
2022-11-10T21:01:59.352Z,15.77
2022-11-10T21:04:28.577Z,15.73
2022-11-10T21:07:00.541Z,15.54
2022-11-10T21:09:27.775Z,15.61
2022-11-10T21:12:13.290Z,15.77
2022-11-10T21:14:40.332Z,15.51
2022-11-10T21:17:10.288Z,15.31
2022-11-10T21:19:37.188Z,15.57
2022-11-10T21:22:06.699Z,15.70
2022-11-10T21:24:39.631Z,15.30
2022-11-10T21:27:12.131Z,15.25
2022-11-10T21:29:42.372Z,15.58
2022-11-10T21:32:14.278Z,15.41
2022-11-10T21:34:44.224Z,15.33
2022-11-10T21:37:13.587Z,15.17
2022-11-10T21:39:42.231Z,15.27
2022-11-10T21:42:11.611Z,15.03
2022-11-10T21:44:43.444Z,14.74
2022-11-10T21:47:15.092Z,14.34
2022-11-10T21:49:44.126Z,14.31
2022-11-10T21:52:13.525Z,14.50
2022-11-10T21:54:40.558Z,14.53
2022-11-10T21:57:07.528Z,14.76
2022-11-10T21:59:36.866Z,14.57
2022-11-10T22:02:06.482Z,14.46
2022-11-10T22:04:33.757Z,14.62
2022-11-10T22:07:18.942Z,14.41
2022-11-10T22:10:07.122Z,14.42
2022-11-10T22:12:55.055Z,14.76
2022-11-10T22:15:40.913Z,14.58
2022-11-10T22:18:35.606Z,14.79
2022-11-10T22:21:04.686Z,14.53
2022-11-10T22:23:50.358Z,14.78
2022-11-10T22:26:20.956Z,14.35
2022-11-10T22:28:52.552Z,14.03
2022-11-10T22:31:24.134Z,14.21
2022-11-10T22:33:53.222Z,14.20
2022-11-10T22:36:21.728Z,14.40
2022-11-10T22:38:49.705Z,13.85
2022-11-10T22:41:35.988Z,14.24
2022-11-10T22:44:06.248Z,14.26
2022-11-10T22:46:39.050Z,14.20
2022-11-10T22:49:09.696Z,14.12
2022-11-10T22:51:38.715Z,13.92
2022-11-10T22:54:11.968Z,13.90
2022-11-10T22:56:39.432Z,13.86
2022-11-10T22:59:06.911Z,13.80
2022-11-10T23:01:35.104Z,13.75
2022-11-10T23:04:02.910Z,13.79
2022-11-10T23:06:30.881Z,13.92
2022-11-10T23:08:58.925Z,14.09
2022-11-10T23:11:32.057Z,13.74
2022-11-10T23:13:59.162Z,13.62
2022-11-10T23:16:33.383Z,13.62
2022-11-10T23:19:00.374Z,13.60
2022-11-10T23:21:33.074Z,13.72
2022-11-10T23:24:02.100Z,13.58
2022-11-10T23:26:34.923Z,13.88
2022-11-10T23:29:01.905Z,14.11
2022-11-10T23:31:31.313Z,13.94
2022-11-10T23:34:00.285Z,13.84
2022-11-10T23:36:27.784Z,13.73
2022-11-10T23:38:57.265Z,13.78
2022-11-10T23:41:26.043Z,13.77
2022-11-10T23:43:58.198Z,13.56
2022-11-10T23:46:25.190Z,13.86
2022-11-10T23:48:52.186Z,13.65
2022-11-10T23:51:24.814Z,13.83
2022-11-10T23:53:51.700Z,13.90
2022-11-10T23:56:22.578Z,13.57
2022-11-10T23:58:49.411Z,13.60
